Flourtown, Pennsylvania
Current Conditions -  °F | °C
As of 3:35 PM on Tuesday 25 Nov 2014 (Local Time) from KLOM Reporting Station
Clear Clear  
Wind Chill: 54°   Ceiling: Unl
Heat Index: 54°   Visibility: 10mi
Dew Point: 32°   Wind: 3mph
Humidity: 44%   Direction: 270°W
Pressure: 30.01"   Gusts: NA
Location:  40.1°N, 75.21°W
Report Text: KLOM 252035Z AUTO 27003KT 10SM CLR 12/00 A3001 RMK AO1
Loading
Personal Weather Stations






























Interactive Weather Map New forecast layout! Learn more

10-Day Weather Forecast

Advertisements
Track Severe Weather on mobile